sensor_id;sensor_type;location;lat;lon;timestamp;temperature;humidity
546;DHT22;259;53.304;9.816;2023-12-29T00:00:07;15.00;88.80
546;DHT22;259;53.304;9.816;2023-12-29T00:02:34;15.00;88.90
546;DHT22;259;53.304;9.816;2023-12-29T00:05:00;15.00;89.00
546;DHT22;259;53.304;9.816;2023-12-29T00:07:26;15.00;89.00
546;DHT22;259;53.304;9.816;2023-12-29T00:09:51;15.00;89.00
546;DHT22;259;53.304;9.816;2023-12-29T00:12:17;15.00;89.10
546;DHT22;259;53.304;9.816;2023-12-29T00:14:43;15.00;89.00
546;DHT22;259;53.304;9.816;2023-12-29T00:17:09;14.90;89.10
546;DHT22;259;53.304;9.816;2023-12-29T00:19:34;14.90;89.10
546;DHT22;259;53.304;9.816;2023-12-29T00:22:00;14.90;89.30
546;DHT22;259;53.304;9.816;2023-12-29T00:24:29;14.90;89.20
546;DHT22;259;53.304;9.816;2023-12-29T00:26:57;14.90;89.30
546;DHT22;259;53.304;9.816;2023-12-29T00:29:24;14.90;89.30
546;DHT22;259;53.304;9.816;2023-12-29T00:31:49;14.90;89.50
546;DHT22;259;53.304;9.816;2023-12-29T00:34:15;14.90;89.40
546;DHT22;259;53.304;9.816;2023-12-29T00:36:41;14.90;89.60
546;DHT22;259;53.304;9.816;2023-12-29T00:39:06;14.80;89.50
546;DHT22;259;53.304;9.816;2023-12-29T00:41:32;14.80;89.50
546;DHT22;259;53.304;9.816;2023-12-29T00:43:58;14.80;89.60
546;DHT22;259;53.304;9.816;2023-12-29T00:46:24;14.80;89.60
546;DHT22;259;53.304;9.816;2023-12-29T00:48:49;14.80;89.60
546;DHT22;259;53.304;9.816;2023-12-29T00:51:15;14.80;89.70
546;DHT22;259;53.304;9.816;2023-12-29T00:53:41;14.80;89.70
546;DHT22;259;53.304;9.816;2023-12-29T00:56:10;14.70;89.70
546;DHT22;259;53.304;9.816;2023-12-29T00:58:37;14.80;89.80
546;DHT22;259;53.304;9.816;2023-12-29T01:01:02;14.70;89.70
546;DHT22;259;53.304;9.816;2023-12-29T01:03:28;14.80;89.90
546;DHT22;259;53.304;9.816;2023-12-29T01:05:54;14.70;90.00
546;DHT22;259;53.304;9.816;2023-12-29T01:08:19;14.70;90.00
546;DHT22;259;53.304;9.816;2023-12-29T01:10:45;14.70;90.00
546;DHT22;259;53.304;9.816;2023-12-29T01:13:11;14.70;90.00
546;DHT22;259;53.304;9.816;2023-12-29T01:15:37;14.70;90.00
546;DHT22;259;53.304;9.816;2023-12-29T01:18:03;14.70;90.00
546;DHT22;259;53.304;9.816;2023-12-29T01:20:29;14.70;90.10
546;DHT22;259;53.304;9.816;2023-12-29T01:22:54;14.60;90.00
546;DHT22;259;53.304;9.816;2023-12-29T01:25:20;14.60;90.00
546;DHT22;259;53.304;9.816;2023-12-29T01:27:46;14.60;90.00
546;DHT22;259;53.304;9.816;2023-12-29T01:30:11;14.60;90.00
546;DHT22;259;53.304;9.816;2023-12-29T01:32:37;14.60;90.10
546;DHT22;259;53.304;9.816;2023-12-29T01:35:03;14.60;90.10
546;DHT22;259;53.304;9.816;2023-12-29T01:37:29;14.60;90.10
546;DHT22;259;53.304;9.816;2023-12-29T01:39:55;14.60;90.20
546;DHT22;259;53.304;9.816;2023-12-29T01:42:20;14.60;90.20
546;DHT22;259;53.304;9.816;2023-12-29T01:44:47;14.60;90.20
546;DHT22;259;53.304;9.816;2023-12-29T01:47:17;14.60;90.20
546;DHT22;259;53.304;9.816;2023-12-29T01:49:45;14.50;90.30
546;DHT22;259;53.304;9.816;2023-12-29T01:52:12;14.50;90.20
546;DHT22;259;53.304;9.816;2023-12-29T01:54:39;14.50;90.20
546;DHT22;259;53.304;9.816;2023-12-29T01:57:06;14.50;90.20
546;DHT22;259;53.304;9.816;2023-12-29T01:59:34;14.50;90.30
546;DHT22;259;53.304;9.816;2023-12-29T02:02:01;14.50;90.40
546;DHT22;259;53.304;9.816;2023-12-29T02:04:28;14.50;90.40
546;DHT22;259;53.304;9.816;2023-12-29T02:06:54;14.50;90.40
546;DHT22;259;53.304;9.816;2023-12-29T02:09:21;14.50;90.40
546;DHT22;259;53.304;9.816;2023-12-29T02:11:47;14.50;90.30
546;DHT22;259;53.304;9.816;2023-12-29T02:14:14;14.50;90.40
546;DHT22;259;53.304;9.816;2023-12-29T02:17:21;14.50;90.40
546;DHT22;259;53.304;9.816;2023-12-29T02:19:48;14.50;90.40
546;DHT22;259;53.304;9.816;2023-12-29T02:22:15;14.40;90.30
546;DHT22;259;53.304;9.816;2023-12-29T02:24:50;14.40;90.40
546;DHT22;259;53.304;9.816;2023-12-29T02:30:45;14.40;90.40
546;DHT22;259;53.304;9.816;2023-12-29T02:33:21;14.40;90.40
546;DHT22;259;53.304;9.816;2023-12-29T02:35:49;14.40;90.50
546;DHT22;259;53.304;9.816;2023-12-29T02:38:17;14.40;90.50
546;DHT22;259;53.304;9.816;2023-12-29T02:40:43;14.40;90.50
546;DHT22;259;53.304;9.816;2023-12-29T02:43:09;14.40;90.50
546;DHT22;259;53.304;9.816;2023-12-29T02:45:35;14.30;90.60
546;DHT22;259;53.304;9.816;2023-12-29T02:48:01;14.30;90.50
546;DHT22;259;53.304;9.816;2023-12-29T02:50:26;14.30;90.50
546;DHT22;259;53.304;9.816;2023-12-29T02:52:52;14.30;90.60
546;DHT22;259;53.304;9.816;2023-12-29T02:55:18;14.30;90.60
546;DHT22;259;53.304;9.816;2023-12-29T02:57:44;14.30;90.60
546;DHT22;259;53.304;9.816;2023-12-29T03:00:10;14.30;90.70
546;DHT22;259;53.304;9.816;2023-12-29T03:02:36;14.30;90.70
546;DHT22;259;53.304;9.816;2023-12-29T03:05:02;14.30;90.70
546;DHT22;259;53.304;9.816;2023-12-29T03:07:28;14.30;90.60
546;DHT22;259;53.304;9.816;2023-12-29T03:09:53;14.20;90.60
546;DHT22;259;53.304;9.816;2023-12-29T03:12:19;14.20;90.70
546;DHT22;259;53.304;9.816;2023-12-29T03:14:45;14.20;90.70
546;DHT22;259;53.304;9.816;2023-12-29T03:17:12;14.20;90.70
546;DHT22;259;53.304;9.816;2023-12-29T03:19:38;14.20;90.70
546;DHT22;259;53.304;9.816;2023-12-29T03:22:04;14.20;90.70
546;DHT22;259;53.304;9.816;2023-12-29T03:24:30;14.20;90.70
546;DHT22;259;53.304;9.816;2023-12-29T03:26:56;14.20;90.70
546;DHT22;259;53.304;9.816;2023-12-29T03:29:22;14.20;90.80
546;DHT22;259;53.304;9.816;2023-12-29T03:31:47;14.20;90.80
546;DHT22;259;53.304;9.816;2023-12-29T03:34:13;14.20;90.80
546;DHT22;259;53.304;9.816;2023-12-29T03:36:39;14.20;90.90
546;DHT22;259;53.304;9.816;2023-12-29T03:39:05;14.10;90.80
546;DHT22;259;53.304;9.816;2023-12-29T03:41:31;14.10;90.80
546;DHT22;259;53.304;9.816;2023-12-29T03:43:57;14.10;90.90
546;DHT22;259;53.304;9.816;2023-12-29T03:46:24;14.10;90.90
546;DHT22;259;53.304;9.816;2023-12-29T03:48:51;14.10;90.90
546;DHT22;259;53.304;9.816;2023-12-29T03:51:18;14.10;90.90
546;DHT22;259;53.304;9.816;2023-12-29T03:53:44;14.10;90.90
546;DHT22;259;53.304;9.816;2023-12-29T03:56:14;14.10;90.90
546;DHT22;259;53.304;9.816;2023-12-29T03:58:41;14.10;90.90
546;DHT22;259;53.304;9.816;2023-12-29T04:01:14;14.10;90.90
546;DHT22;259;53.304;9.816;2023-12-29T04:03:41;14.10;90.90
546;DHT22;259;53.304;9.816;2023-12-29T04:06:08;14.00;90.90
546;DHT22;259;53.304;9.816;2023-12-29T04:08:34;14.10;91.00
546;DHT22;259;53.304;9.816;2023-12-29T04:11:00;14.00;91.00
546;DHT22;259;53.304;9.816;2023-12-29T04:13:26;14.00;90.90
546;DHT22;259;53.304;9.816;2023-12-29T04:15:52;14.00;91.00
546;DHT22;259;53.304;9.816;2023-12-29T04:18:20;14.00;90.90
546;DHT22;259;53.304;9.816;2023-12-29T04:20:46;14.00;91.00
546;DHT22;259;53.304;9.816;2023-12-29T04:23:12;14.00;91.00
546;DHT22;259;53.304;9.816;2023-12-29T04:25:39;14.00;91.00
546;DHT22;259;53.304;9.816;2023-12-29T04:28:06;13.90;91.00
546;DHT22;259;53.304;9.816;2023-12-29T04:30:32;13.90;91.00
546;DHT22;259;53.304;9.816;2023-12-29T04:32:57;14.00;91.00
546;DHT22;259;53.304;9.816;2023-12-29T04:35:23;14.00;91.00
546;DHT22;259;53.304;9.816;2023-12-29T04:37:49;14.00;91.10
546;DHT22;259;53.304;9.816;2023-12-29T04:40:16;13.90;91.10
546;DHT22;259;53.304;9.816;2023-12-29T04:42:42;13.90;91.10
546;DHT22;259;53.304;9.816;2023-12-29T04:45:08;13.90;91.00
546;DHT22;259;53.304;9.816;2023-12-29T04:47:34;13.90;91.10
546;DHT22;259;53.304;9.816;2023-12-29T04:49:59;13.90;91.10
546;DHT22;259;53.304;9.816;2023-12-29T04:52:25;13.90;91.10
546;DHT22;259;53.304;9.816;2023-12-29T04:54:51;13.90;91.10
546;DHT22;259;53.304;9.816;2023-12-29T04:57:16;13.90;91.20
546;DHT22;259;53.304;9.816;2023-12-29T04:59:42;13.80;91.10
546;DHT22;259;53.304;9.816;2023-12-29T05:02:08;13.90;91.30
546;DHT22;259;53.304;9.816;2023-12-29T05:04:33;13.80;91.30
546;DHT22;259;53.304;9.816;2023-12-29T05:06:59;13.80;91.30
546;DHT22;259;53.304;9.816;2023-12-29T05:09:25;13.80;91.30
546;DHT22;259;53.304;9.816;2023-12-29T05:11:50;13.80;91.20
546;DHT22;259;53.304;9.816;2023-12-29T05:14:16;13.80;91.30
546;DHT22;259;53.304;9.816;2023-12-29T05:16:42;13.80;91.20
546;DHT22;259;53.304;9.816;2023-12-29T05:19:08;13.80;91.20
546;DHT22;259;53.304;9.816;2023-12-29T05:21:34;13.80;91.20
546;DHT22;259;53.304;9.816;2023-12-29T05:24:00;13.80;91.20
546;DHT22;259;53.304;9.816;2023-12-29T05:26:25;13.70;91.20
546;DHT22;259;53.304;9.816;2023-12-29T05:28:51;13.70;91.20
546;DHT22;259;53.304;9.816;2023-12-29T05:31:17;13.70;91.20
546;DHT22;259;53.304;9.816;2023-12-29T05:33:44;13.70;91.20
546;DHT22;259;53.304;9.816;2023-12-29T05:36:10;13.70;91.20
546;DHT22;259;53.304;9.816;2023-12-29T05:38:37;13.70;91.20
546;DHT22;259;53.304;9.816;2023-12-29T05:41:04;13.70;91.20
546;DHT22;259;53.304;9.816;2023-12-29T05:43:33;13.60;91.10
546;DHT22;259;53.304;9.816;2023-12-29T05:46:00;13.70;91.20
546;DHT22;259;53.304;9.816;2023-12-29T05:48:26;13.60;91.20
546;DHT22;259;53.304;9.816;2023-12-29T05:50:52;13.70;91.20
546;DHT22;259;53.304;9.816;2023-12-29T05:53:18;13.60;91.20
546;DHT22;259;53.304;9.816;2023-12-29T05:55:44;13.60;91.20
546;DHT22;259;53.304;9.816;2023-12-29T05:58:11;13.60;91.20
546;DHT22;259;53.304;9.816;2023-12-29T06:00:37;13.60;91.20
546;DHT22;259;53.304;9.816;2023-12-29T06:03:04;13.60;91.20
546;DHT22;259;53.304;9.816;2023-12-29T06:05:30;13.60;91.30
546;DHT22;259;53.304;9.816;2023-12-29T06:07:56;13.60;91.30
546;DHT22;259;53.304;9.816;2023-12-29T06:10:21;13.60;91.30
546;DHT22;259;53.304;9.816;2023-12-29T06:12:47;13.60;91.30
546;DHT22;259;53.304;9.816;2023-12-29T06:15:13;13.60;91.30
546;DHT22;259;53.304;9.816;2023-12-29T06:17:42;13.60;91.30
546;DHT22;259;53.304;9.816;2023-12-29T06:20:09;13.50;91.20
546;DHT22;259;53.304;9.816;2023-12-29T06:22:41;13.50;91.20
546;DHT22;259;53.304;9.816;2023-12-29T06:25:11;13.50;91.30
546;DHT22;259;53.304;9.816;2023-12-29T06:27:38;13.50;91.30
546;DHT22;259;53.304;9.816;2023-12-29T06:30:08;13.50;91.30
546;DHT22;259;53.304;9.816;2023-12-29T06:32:36;13.50;91.30
546;DHT22;259;53.304;9.816;2023-12-29T06:35:02;13.50;91.30
546;DHT22;259;53.304;9.816;2023-12-29T06:37:28;13.50;91.30
546;DHT22;259;53.304;9.816;2023-12-29T06:39:54;13.40;91.30
546;DHT22;259;53.304;9.816;2023-12-29T06:42:20;13.40;91.30
546;DHT22;259;53.304;9.816;2023-12-29T06:44:46;13.40;91.30
546;DHT22;259;53.304;9.816;2023-12-29T06:47:12;13.40;91.40
546;DHT22;259;53.304;9.816;2023-12-29T06:49:38;13.40;91.30
546;DHT22;259;53.304;9.816;2023-12-29T06:52:04;13.40;91.30
546;DHT22;259;53.304;9.816;2023-12-29T06:54:30;13.40;91.40
546;DHT22;259;53.304;9.816;2023-12-29T06:56:56;13.40;91.40
546;DHT22;259;53.304;9.816;2023-12-29T06:59:22;13.40;91.40
546;DHT22;259;53.304;9.816;2023-12-29T07:01:48;13.30;91.40
546;DHT22;259;53.304;9.816;2023-12-29T07:04:14;13.40;91.40
546;DHT22;259;53.304;9.816;2023-12-29T07:06:41;13.40;91.40
546;DHT22;259;53.304;9.816;2023-12-29T07:09:07;13.30;91.40
546;DHT22;259;53.304;9.816;2023-12-29T07:11:34;13.30;91.40
546;DHT22;259;53.304;9.816;2023-12-29T07:14:00;13.30;91.40
546;DHT22;259;53.304;9.816;2023-12-29T07:16:26;13.30;91.40
546;DHT22;259;53.304;9.816;2023-12-29T07:18:52;13.30;91.40
546;DHT22;259;53.304;9.816;2023-12-29T07:21:18;13.30;91.40
546;DHT22;259;53.304;9.816;2023-12-29T07:23:43;13.30;91.50
546;DHT22;259;53.304;9.816;2023-12-29T07:26:09;13.30;91.50
546;DHT22;259;53.304;9.816;2023-12-29T07:28:35;13.30;91.40
546;DHT22;259;53.304;9.816;2023-12-29T07:31:01;13.30;91.50
546;DHT22;259;53.304;9.816;2023-12-29T07:33:27;13.30;91.50
546;DHT22;259;53.304;9.816;2023-12-29T07:35:53;13.30;91.50
546;DHT22;259;53.304;9.816;2023-12-29T07:38:19;13.20;91.50
546;DHT22;259;53.304;9.816;2023-12-29T07:40:45;13.20;91.50
546;DHT22;259;53.304;9.816;2023-12-29T07:43:13;13.20;91.50
546;DHT22;259;53.304;9.816;2023-12-29T07:45:39;13.20;91.50
546;DHT22;259;53.304;9.816;2023-12-29T07:48:05;13.20;91.50
546;DHT22;259;53.304;9.816;2023-12-29T07:50:31;13.20;91.50
546;DHT22;259;53.304;9.816;2023-12-29T07:52:57;13.20;91.50
546;DHT22;259;53.304;9.816;2023-12-29T07:55:23;13.20;91.60
546;DHT22;259;53.304;9.816;2023-12-29T07:57:48;13.20;91.60
546;DHT22;259;53.304;9.816;2023-12-29T08:00:15;13.20;91.60
546;DHT22;259;53.304;9.816;2023-12-29T08:02:41;13.20;91.60
546;DHT22;259;53.304;9.816;2023-12-29T08:05:07;13.10;91.60
546;DHT22;259;53.304;9.816;2023-12-29T08:07:36;13.20;91.60
546;DHT22;259;53.304;9.816;2023-12-29T08:10:04;13.20;91.60
546;DHT22;259;53.304;9.816;2023-12-29T08:12:30;13.10;91.60
546;DHT22;259;53.304;9.816;2023-12-29T08:14:58;13.10;91.60
546;DHT22;259;53.304;9.816;2023-12-29T08:17:24;13.10;91.60
546;DHT22;259;53.304;9.816;2023-12-29T08:19:50;13.10;91.60
546;DHT22;259;53.304;9.816;2023-12-29T08:22:15;13.10;91.70
546;DHT22;259;53.304;9.816;2023-12-29T08:24:41;13.10;91.70
546;DHT22;259;53.304;9.816;2023-12-29T08:27:11;13.10;91.70
546;DHT22;259;53.304;9.816;2023-12-29T08:29:37;13.10;91.80
546;DHT22;259;53.304;9.816;2023-12-29T08:32:03;13.10;91.80
546;DHT22;259;53.304;9.816;2023-12-29T08:34:29;13.20;91.90
546;DHT22;259;53.304;9.816;2023-12-29T08:36:54;13.10;91.80
546;DHT22;259;53.304;9.816;2023-12-29T08:39:20;13.10;91.80
546;DHT22;259;53.304;9.816;2023-12-29T08:41:47;13.10;91.80
546;DHT22;259;53.304;9.816;2023-12-29T08:44:15;13.10;91.80
546;DHT22;259;53.304;9.816;2023-12-29T08:46:41;13.10;91.80
546;DHT22;259;53.304;9.816;2023-12-29T08:49:06;13.00;91.70
546;DHT22;259;53.304;9.816;2023-12-29T08:51:32;13.10;91.70
546;DHT22;259;53.304;9.816;2023-12-29T08:53:58;13.00;91.70
546;DHT22;259;53.304;9.816;2023-12-29T08:56:24;13.00;91.70
546;DHT22;259;53.304;9.816;2023-12-29T08:58:50;13.00;91.80
546;DHT22;259;53.304;9.816;2023-12-29T09:01:16;13.00;91.80
546;DHT22;259;53.304;9.816;2023-12-29T09:03:42;13.00;91.80
546;DHT22;259;53.304;9.816;2023-12-29T09:06:08;13.00;91.80
546;DHT22;259;53.304;9.816;2023-12-29T09:08:34;13.00;91.90
546;DHT22;259;53.304;9.816;2023-12-29T09:11:00;13.00;91.90
546;DHT22;259;53.304;9.816;2023-12-29T09:13:26;13.00;91.90
546;DHT22;259;53.304;9.816;2023-12-29T09:15:54;13.00;91.90
546;DHT22;259;53.304;9.816;2023-12-29T09:18:20;13.00;91.90
546;DHT22;259;53.304;9.816;2023-12-29T09:20:46;13.00;91.90
546;DHT22;259;53.304;9.816;2023-12-29T09:23:11;13.00;91.90
546;DHT22;259;53.304;9.816;2023-12-29T09:25:37;13.00;91.90
546;DHT22;259;53.304;9.816;2023-12-29T09:28:03;12.90;91.90
546;DHT22;259;53.304;9.816;2023-12-29T09:30:29;12.90;91.90
546;DHT22;259;53.304;9.816;2023-12-29T09:32:54;12.90;91.90
546;DHT22;259;53.304;9.816;2023-12-29T09:35:20;12.90;91.90
546;DHT22;259;53.304;9.816;2023-12-29T09:37:47;12.90;91.90
546;DHT22;259;53.304;9.816;2023-12-29T09:40:14;12.90;92.00
546;DHT22;259;53.304;9.816;2023-12-29T09:42:41;12.90;91.90
546;DHT22;259;53.304;9.816;2023-12-29T09:45:10;12.90;92.00
546;DHT22;259;53.304;9.816;2023-12-29T09:47:41;12.90;92.00
546;DHT22;259;53.304;9.816;2023-12-29T09:50:11;12.90;91.90
546;DHT22;259;53.304;9.816;2023-12-29T09:52:40;12.90;92.00
546;DHT22;259;53.304;9.816;2023-12-29T09:55:10;12.90;92.00
546;DHT22;259;53.304;9.816;2023-12-29T09:57:37;12.90;92.00
546;DHT22;259;53.304;9.816;2023-12-29T10:00:04;12.80;92.00
546;DHT22;259;53.304;9.816;2023-12-29T10:02:31;12.80;92.00
546;DHT22;259;53.304;9.816;2023-12-29T10:04:59;12.90;92.10
546;DHT22;259;53.304;9.816;2023-12-29T10:07:27;12.80;92.10
546;DHT22;259;53.304;9.816;2023-12-29T10:09:57;12.80;92.00
546;DHT22;259;53.304;9.816;2023-12-29T10:12:24;12.80;92.10
546;DHT22;259;53.304;9.816;2023-12-29T10:15:14;12.80;92.00
546;DHT22;259;53.304;9.816;2023-12-29T10:20:48;12.80;92.10
546;DHT22;259;53.304;9.816;2023-12-29T10:23:25;12.80;92.00
546;DHT22;259;53.304;9.816;2023-12-29T10:25:57;12.80;92.10
546;DHT22;259;53.304;9.816;2023-12-29T10:28:23;12.80;92.20
546;DHT22;259;53.304;9.816;2023-12-29T10:30:49;12.80;92.20
546;DHT22;259;53.304;9.816;2023-12-29T10:33:21;12.80;92.20
546;DHT22;259;53.304;9.816;2023-12-29T10:36:16;12.80;92.20
546;DHT22;259;53.304;9.816;2023-12-29T10:38:42;12.80;92.20
546;DHT22;259;53.304;9.816;2023-12-29T10:41:15;12.80;92.20
546;DHT22;259;53.304;9.816;2023-12-29T10:43:45;12.70;92.20
546;DHT22;259;53.304;9.816;2023-12-29T10:46:12;12.70;92.20
546;DHT22;259;53.304;9.816;2023-12-29T10:48:39;12.70;92.20
546;DHT22;259;53.304;9.816;2023-12-29T10:51:05;12.70;92.20
546;DHT22;259;53.304;9.816;2023-12-29T10:53:35;12.70;92.20
546;DHT22;259;53.304;9.816;2023-12-29T10:56:01;12.70;92.20
546;DHT22;259;53.304;9.816;2023-12-29T10:58:28;12.70;92.20
546;DHT22;259;53.304;9.816;2023-12-29T11:00:55;12.70;92.30
546;DHT22;259;53.304;9.816;2023-12-29T11:03:21;12.70;92.20
546;DHT22;259;53.304;9.816;2023-12-29T11:05:47;12.70;92.30
546;DHT22;259;53.304;9.816;2023-12-29T11:08:20;12.70;92.30
546;DHT22;259;53.304;9.816;2023-12-29T11:10:50;12.70;92.30
546;DHT22;259;53.304;9.816;2023-12-29T11:13:16;12.70;92.40
546;DHT22;259;53.304;9.816;2023-12-29T11:15:44;12.70;92.30
546;DHT22;259;53.304;9.816;2023-12-29T11:18:15;12.70;92.40
546;DHT22;259;53.304;9.816;2023-12-29T11:20:45;12.70;92.40
546;DHT22;259;53.304;9.816;2023-12-29T11:23:12;12.70;92.40
546;DHT22;259;53.304;9.816;2023-12-29T11:25:43;12.60;92.30
546;DHT22;259;53.304;9.816;2023-12-29T11:28:11;12.60;92.40
546;DHT22;259;53.304;9.816;2023-12-29T11:30:40;12.60;92.40
546;DHT22;259;53.304;9.816;2023-12-29T11:33:17;12.60;92.40
546;DHT22;259;53.304;9.816;2023-12-29T11:38:37;12.60;92.50
546;DHT22;259;53.304;9.816;2023-12-29T11:44:00;12.60;92.50
546;DHT22;259;53.304;9.816;2023-12-29T11:46:40;12.60;92.50
546;DHT22;259;53.304;9.816;2023-12-29T11:49:09;12.60;92.50
546;DHT22;259;53.304;9.816;2023-12-29T11:51:48;12.60;92.50
546;DHT22;259;53.304;9.816;2023-12-29T11:54:27;12.60;92.50
546;DHT22;259;53.304;9.816;2023-12-29T11:56:53;12.60;92.50
546;DHT22;259;53.304;9.816;2023-12-29T11:59:20;12.60;92.50
546;DHT22;259;53.304;9.816;2023-12-29T12:01:50;12.60;92.50
546;DHT22;259;53.304;9.816;2023-12-29T12:07:07;12.50;92.40
546;DHT22;259;53.304;9.816;2023-12-29T12:09:41;12.50;92.50
546;DHT22;259;53.304;9.816;2023-12-29T12:12:06;12.50;92.50
546;DHT22;259;53.304;9.816;2023-12-29T12:14:52;12.50;92.50
546;DHT22;259;53.304;9.816;2023-12-29T12:20:06;12.50;92.50
546;DHT22;259;53.304;9.816;2023-12-29T12:22:36;12.50;92.50
546;DHT22;259;53.304;9.816;2023-12-29T12:25:03;12.60;92.50
546;DHT22;259;53.304;9.816;2023-12-29T12:27:30;12.50;92.40
546;DHT22;259;53.304;9.816;2023-12-29T12:29:58;12.50;92.40
546;DHT22;259;53.304;9.816;2023-12-29T12:32:26;12.50;92.40
546;DHT22;259;53.304;9.816;2023-12-29T12:34:52;12.50;92.50
546;DHT22;259;53.304;9.816;2023-12-29T12:37:22;12.50;92.50
546;DHT22;259;53.304;9.816;2023-12-29T12:39:49;12.50;92.50
546;DHT22;259;53.304;9.816;2023-12-29T12:42:16;12.50;92.50
546;DHT22;259;53.304;9.816;2023-12-29T12:44:54;12.50;92.50
546;DHT22;259;53.304;9.816;2023-12-29T12:47:37;12.50;92.50
546;DHT22;259;53.304;9.816;2023-12-29T12:50:08;12.50;92.50
546;DHT22;259;53.304;9.816;2023-12-29T12:52:35;12.50;92.50
546;DHT22;259;53.304;9.816;2023-12-29T12:55:02;12.50;92.50
546;DHT22;259;53.304;9.816;2023-12-29T12:57:29;12.50;92.60
546;DHT22;259;53.304;9.816;2023-12-29T12:59:55;12.50;92.50
546;DHT22;259;53.304;9.816;2023-12-29T13:02:22;12.50;92.50
546;DHT22;259;53.304;9.816;2023-12-29T13:04:49;12.50;92.50
546;DHT22;259;53.304;9.816;2023-12-29T13:07:17;12.50;92.50
546;DHT22;259;53.304;9.816;2023-12-29T13:09:47;12.50;92.50
546;DHT22;259;53.304;9.816;2023-12-29T13:12:14;12.50;92.80
546;DHT22;259;53.304;9.816;2023-12-29T13:14:42;12.50;92.50
546;DHT22;259;53.304;9.816;2023-12-29T13:17:09;12.50;92.50
546;DHT22;259;53.304;9.816;2023-12-29T13:19:36;12.50;92.50
546;DHT22;259;53.304;9.816;2023-12-29T13:22:07;12.50;92.80
546;DHT22;259;53.304;9.816;2023-12-29T13:24:33;12.50;92.50
546;DHT22;259;53.304;9.816;2023-12-29T13:27:05;12.50;92.50
546;DHT22;259;53.304;9.816;2023-12-29T13:29:33;12.50;92.50
546;DHT22;259;53.304;9.816;2023-12-29T13:32:20;12.50;92.50
546;DHT22;259;53.304;9.816;2023-12-29T13:37:35;12.60;92.50
546;DHT22;259;53.304;9.816;2023-12-29T13:42:45;12.60;92.40
546;DHT22;259;53.304;9.816;2023-12-29T13:45:13;12.50;92.30
546;DHT22;259;53.304;9.816;2023-12-29T13:47:41;12.50;92.20
546;DHT22;259;53.304;9.816;2023-12-29T13:50:09;12.60;92.30
546;DHT22;259;53.304;9.816;2023-12-29T13:52:36;12.60;92.30
546;DHT22;259;53.304;9.816;2023-12-29T13:55:03;12.60;92.20
546;DHT22;259;53.304;9.816;2023-12-29T13:57:34;12.60;92.20
546;DHT22;259;53.304;9.816;2023-12-29T14:00:25;12.60;92.20
546;DHT22;259;53.304;9.816;2023-12-29T14:05:39;12.60;92.10
546;DHT22;259;53.304;9.816;2023-12-29T14:08:25;12.60;92.20
546;DHT22;259;53.304;9.816;2023-12-29T14:10:52;12.60;92.10
546;DHT22;259;53.304;9.816;2023-12-29T14:13:19;12.60;92.20
546;DHT22;259;53.304;9.816;2023-12-29T14:15:46;12.70;93.10
546;DHT22;259;53.304;9.816;2023-12-29T14:20:58;12.80;93.60
546;DHT22;259;53.304;9.816;2023-12-29T14:23:23;12.90;93.70
546;DHT22;259;53.304;9.816;2023-12-29T14:25:49;13.00;93.80
546;DHT22;259;53.304;9.816;2023-12-29T14:28:19;13.00;93.60
546;DHT22;259;53.304;9.816;2023-12-29T14:30:46;13.00;93.10
546;DHT22;259;53.304;9.816;2023-12-29T14:33:12;13.00;93.20
546;DHT22;259;53.304;9.816;2023-12-29T14:35:38;13.00;93.30
546;DHT22;259;53.304;9.816;2023-12-29T14:38:04;13.00;93.20
546;DHT22;259;53.304;9.816;2023-12-29T14:40:30;13.00;93.10
546;DHT22;259;53.304;9.816;2023-12-29T14:42:56;13.00;93.20
546;DHT22;259;53.304;9.816;2023-12-29T14:45:21;13.00;93.20
546;DHT22;259;53.304;9.816;2023-12-29T14:47:47;13.00;93.00
546;DHT22;259;53.304;9.816;2023-12-29T14:50:14;13.00;93.20
546;DHT22;259;53.304;9.816;2023-12-29T14:52:41;13.10;93.10
546;DHT22;259;53.304;9.816;2023-12-29T14:55:06;13.10;93.00
546;DHT22;259;53.304;9.816;2023-12-29T14:57:32;13.10;92.90
546;DHT22;259;53.304;9.816;2023-12-29T14:59:58;13.10;92.90
546;DHT22;259;53.304;9.816;2023-12-29T15:02:24;13.10;92.80
546;DHT22;259;53.304;9.816;2023-12-29T15:04:49;13.10;92.60
546;DHT22;259;53.304;9.816;2023-12-29T15:07:16;13.00;92.30
546;DHT22;259;53.304;9.816;2023-12-29T15:09:42;13.00;92.30
546;DHT22;259;53.304;9.816;2023-12-29T15:12:08;13.00;92.20
546;DHT22;259;53.304;9.816;2023-12-29T15:14:34;13.00;92.10
546;DHT22;259;53.304;9.816;2023-12-29T15:16:59;13.00;92.10
546;DHT22;259;53.304;9.816;2023-12-29T15:19:25;12.90;92.10
546;DHT22;259;53.304;9.816;2023-12-29T15:21:51;12.90;91.90
546;DHT22;259;53.304;9.816;2023-12-29T15:24:19;12.90;91.90
546;DHT22;259;53.304;9.816;2023-12-29T15:26:46;12.90;91.90
546;DHT22;259;53.304;9.816;2023-12-29T15:29:11;12.90;91.80
546;DHT22;259;53.304;9.816;2023-12-29T15:31:37;12.90;91.80
546;DHT22;259;53.304;9.816;2023-12-29T15:34:03;12.90;91.80
546;DHT22;259;53.304;9.816;2023-12-29T15:36:29;12.90;91.70
546;DHT22;259;53.304;9.816;2023-12-29T15:38:55;12.80;91.70
546;DHT22;259;53.304;9.816;2023-12-29T15:41:23;12.80;91.60
546;DHT22;259;53.304;9.816;2023-12-29T15:43:49;12.80;91.60
546;DHT22;259;53.304;9.816;2023-12-29T15:46:15;12.80;91.60
546;DHT22;259;53.304;9.816;2023-12-29T15:48:44;12.80;91.60
546;DHT22;259;53.304;9.816;2023-12-29T15:51:10;12.80;91.70
546;DHT22;259;53.304;9.816;2023-12-29T15:53:36;12.80;91.70
546;DHT22;259;53.304;9.816;2023-12-29T15:56:03;12.80;91.70
546;DHT22;259;53.304;9.816;2023-12-29T15:58:30;12.70;91.80
546;DHT22;259;53.304;9.816;2023-12-29T16:00:56;12.70;91.80
546;DHT22;259;53.304;9.816;2023-12-29T16:03:22;12.70;91.80
546;DHT22;259;53.304;9.816;2023-12-29T16:05:48;12.70;91.90
546;DHT22;259;53.304;9.816;2023-12-29T16:08:13;12.70;91.90
546;DHT22;259;53.304;9.816;2023-12-29T16:10:40;12.70;92.00
546;DHT22;259;53.304;9.816;2023-12-29T16:13:06;12.70;92.00
546;DHT22;259;53.304;9.816;2023-12-29T16:15:32;12.60;92.00
546;DHT22;259;53.304;9.816;2023-12-29T16:17:58;12.60;92.00
546;DHT22;259;53.304;9.816;2023-12-29T16:20:25;12.60;92.10
546;DHT22;259;53.304;9.816;2023-12-29T16:22:51;12.60;92.10
546;DHT22;259;53.304;9.816;2023-12-29T16:25:18;12.60;92.20
546;DHT22;259;53.304;9.816;2023-12-29T16:27:44;12.60;92.20
546;DHT22;259;53.304;9.816;2023-12-29T16:30:11;12.60;92.20
546;DHT22;259;53.304;9.816;2023-12-29T16:32:37;12.60;92.20
546;DHT22;259;53.304;9.816;2023-12-29T16:35:03;12.60;92.20
546;DHT22;259;53.304;9.816;2023-12-29T16:37:36;12.60;92.30
546;DHT22;259;53.304;9.816;2023-12-29T16:40:04;12.50;92.20
546;DHT22;259;53.304;9.816;2023-12-29T16:42:34;12.50;92.20
546;DHT22;259;53.304;9.816;2023-12-29T16:45:00;12.50;92.30
546;DHT22;259;53.304;9.816;2023-12-29T16:47:26;12.50;92.20
546;DHT22;259;53.304;9.816;2023-12-29T16:49:51;12.50;92.20
546;DHT22;259;53.304;9.816;2023-12-29T16:52:17;12.50;92.30
546;DHT22;259;53.304;9.816;2023-12-29T16:54:43;12.50;92.30
546;DHT22;259;53.304;9.816;2023-12-29T16:57:08;12.50;92.30
546;DHT22;259;53.304;9.816;2023-12-29T16:59:34;12.50;92.30
546;DHT22;259;53.304;9.816;2023-12-29T17:02:00;12.40;92.30